createdAt,value
2018-02-25T00:00:27.658Z,17.70
2018-02-25T00:02:55.155Z,14.77
2018-02-25T00:05:22.613Z,19.35
2018-02-25T00:07:50.087Z,15.50
2018-02-25T00:10:17.576Z,18.50
2018-02-25T00:12:45.127Z,19.37
2018-02-25T00:15:12.597Z,13.25
2018-02-25T00:17:40.100Z,20.92
2018-02-25T00:20:07.611Z,21.85
2018-02-25T00:22:35.253Z,15.27
2018-02-25T00:25:03.109Z,15.32
2018-02-25T00:27:30.578Z,16.87
2018-02-25T00:29:58.043Z,18.00
2018-02-25T00:32:25.519Z,14.82
2018-02-25T00:34:53.519Z,17.85
2018-02-25T00:37:20.976Z,16.45
2018-02-25T00:39:48.446Z,15.30
2018-02-25T00:42:15.920Z,15.27
2018-02-25T00:44:43.440Z,12.15
2018-02-25T00:47:10.972Z,12.52
2018-02-25T00:49:38.497Z,13.38
2018-02-25T00:52:06.272Z,14.68
2018-02-25T00:54:33.748Z,15.32
2018-02-25T00:57:01.286Z,15.23
2018-02-25T00:59:28.747Z,18.65
2018-02-25T01:01:56.225Z,14.50
2018-02-25T01:04:23.708Z,14.27
2018-02-25T01:06:51.180Z,14.10
2018-02-25T01:09:18.683Z,13.15
2018-02-25T01:11:46.157Z,15.43
2018-02-25T01:14:13.740Z,10.65
2018-02-25T01:16:41.470Z,17.02
2018-02-25T01:19:08.931Z,12.35
2018-02-25T01:21:36.406Z,13.50
2018-02-25T01:24:03.862Z,14.90
2018-02-25T01:26:31.600Z,14.52
2018-02-25T01:28:59.091Z,10.88
2018-02-25T01:31:26.552Z,17.95
2018-02-25T01:33:54.007Z,12.18
2018-02-25T01:36:21.491Z,15.70
2018-02-25T01:38:48.991Z,11.82
2018-02-25T01:41:16.459Z,14.27
2018-02-25T01:43:43.942Z,16.85
2018-02-25T01:46:11.409Z,17.10
2018-02-25T01:48:38.905Z,21.77
2018-02-25T01:51:06.402Z,14.27
2018-02-25T01:53:33.860Z,16.60
2018-02-25T01:56:01.331Z,20.20
2018-02-25T01:58:28.799Z,12.50
2018-02-25T02:00:56.262Z,16.65
2018-02-25T02:03:23.737Z,15.43
2018-02-25T02:05:51.226Z,14.18
2018-02-25T02:08:18.697Z,13.60
2018-02-25T02:10:46.187Z,19.15
2018-02-25T02:13:13.668Z,19.85
2018-02-25T02:15:41.151Z,11.57
2018-02-25T02:18:08.629Z,15.20
2018-02-25T02:20:36.114Z,11.98
2018-02-25T02:23:03.595Z,12.20
2018-02-25T02:25:31.078Z,12.68
2018-02-25T02:27:58.551Z,10.57
2018-02-25T02:30:26.180Z,13.15
2018-02-25T02:32:53.668Z,13.45
2018-02-25T02:35:21.121Z,12.02
2018-02-25T02:37:48.596Z,12.23
2018-02-25T02:40:16.259Z,10.55
2018-02-25T02:42:43.721Z,19.10
2018-02-25T02:45:11.176Z,11.90
2018-02-25T02:47:38.652Z,15.35
2018-02-25T02:50:06.679Z,13.75
2018-02-25T02:52:34.176Z,11.55
2018-02-25T02:55:01.671Z,6.32
2018-02-25T02:57:29.199Z,11.38
2018-02-25T02:59:56.647Z,11.60
2018-02-25T03:02:24.116Z,11.02
2018-02-25T03:04:51.592Z,14.48
2018-02-25T03:07:19.048Z,12.73
2018-02-25T03:09:46.528Z,12.20
2018-02-25T03:12:14.018Z,12.65
2018-02-25T03:14:41.471Z,14.50
2018-02-25T03:17:08.942Z,13.88
2018-02-25T03:19:36.415Z,14.60
2018-02-25T03:22:03.946Z,14.40
2018-02-25T03:24:31.423Z,15.07
2018-02-25T03:26:58.884Z,26.10
2018-02-25T03:29:26.368Z,13.30
2018-02-25T03:31:53.898Z,12.57
2018-02-25T03:34:21.362Z,15.32
2018-02-25T03:36:48.839Z,13.98
2018-02-25T03:39:16.356Z,12.00
2018-02-25T03:41:43.818Z,15.02
2018-02-25T03:44:11.297Z,14.65
2018-02-25T03:46:38.766Z,13.85
2018-02-25T03:49:06.244Z,10.95
2018-02-25T03:51:33.755Z,13.20
2018-02-25T03:54:01.223Z,17.85
2018-02-25T03:56:28.696Z,15.85
2018-02-25T03:58:56.180Z,13.62
2018-02-25T04:01:23.665Z,14.57
2018-02-25T04:06:24.308Z,14.40
2018-02-25T04:08:51.787Z,25.33
2018-02-25T04:11:19.267Z,19.70
2018-02-25T04:13:46.746Z,18.87
2018-02-25T04:16:14.306Z,16.90
2018-02-25T04:18:41.886Z,17.30
2018-02-25T04:21:09.373Z,21.87
2018-02-25T04:23:36.845Z,22.42
2018-02-25T04:26:04.322Z,15.90
2018-02-25T04:28:31.811Z,25.73
2018-02-25T04:30:59.315Z,17.37
2018-02-25T04:33:26.780Z,31.85
2018-02-25T04:35:54.339Z,18.85
2018-02-25T04:38:21.822Z,20.05
2018-02-25T04:40:49.292Z,16.10
2018-02-25T04:43:16.757Z,16.87
2018-02-25T04:45:44.281Z,17.98
2018-02-25T04:48:11.741Z,21.37
2018-02-25T04:50:39.217Z,18.20
2018-02-25T04:53:06.711Z,19.50
2018-02-25T04:55:34.187Z,22.77
2018-02-25T04:58:01.693Z,24.02
2018-02-25T05:00:29.253Z,23.30
2018-02-25T05:02:56.740Z,21.25
2018-02-25T05:05:24.224Z,21.33
2018-02-25T05:07:51.738Z,19.12
2018-02-25T05:10:19.210Z,17.48
2018-02-25T05:12:46.975Z,21.75
2018-02-25T05:15:14.568Z,23.98
2018-02-25T05:17:42.063Z,24.77
2018-02-25T05:20:09.570Z,22.00
2018-02-25T05:22:37.040Z,23.00
2018-02-25T05:25:04.521Z,23.15
2018-02-25T05:27:32.005Z,21.23
2018-02-25T05:29:59.491Z,22.25
2018-02-25T05:32:26.988Z,20.85
2018-02-25T05:34:54.473Z,21.62
2018-02-25T05:37:21.948Z,24.37
2018-02-25T05:39:49.422Z,25.25
2018-02-25T05:42:16.911Z,20.50
2018-02-25T05:44:44.371Z,25.08
2018-02-25T05:47:11.845Z,17.23
2018-02-25T05:49:39.328Z,19.42
2018-02-25T05:52:06.841Z,24.80
2018-02-25T05:54:34.367Z,21.25
2018-02-25T05:57:02.698Z,31.73
2018-02-25T05:59:30.672Z,18.77
2018-02-25T06:02:00.100Z,28.35
2018-02-25T06:04:27.607Z,26.52
2018-02-25T06:06:55.087Z,21.02
2018-02-25T06:09:22.575Z,24.40
2018-02-25T06:11:50.119Z,29.12
2018-02-25T06:14:18.216Z,24.40
2018-02-25T06:16:45.684Z,24.23
2018-02-25T06:19:13.156Z,20.73
2018-02-25T06:21:40.637Z,24.98
2018-02-25T06:24:09.907Z,24.60
2018-02-25T06:26:38.714Z,25.88
2018-02-25T06:29:07.428Z,24.98
2018-02-25T06:31:35.759Z,23.25
2018-02-25T06:34:04.224Z,17.55
2018-02-25T06:36:31.707Z,20.55
2018-02-25T06:38:59.171Z,20.42
2018-02-25T06:41:26.656Z,23.90
2018-02-25T06:43:54.149Z,23.73
2018-02-25T06:46:21.626Z,26.45
2018-02-25T06:48:49.103Z,18.42
2018-02-25T06:51:18.093Z,26.65
2018-02-25T06:53:45.574Z,24.17
2018-02-25T06:56:13.076Z,23.27
2018-02-25T06:58:40.535Z,20.17
2018-02-25T07:01:07.992Z,20.77
2018-02-25T07:03:35.568Z,18.58
2018-02-25T07:06:03.045Z,18.50
2018-02-25T07:08:30.528Z,22.50
2018-02-25T07:10:58.003Z,20.95
2018-02-25T07:13:25.491Z,20.23
2018-02-25T07:15:52.996Z,21.40
2018-02-25T07:18:20.561Z,24.95
2018-02-25T07:20:48.073Z,19.55
2018-02-25T07:23:16.286Z,25.52
2018-02-25T07:25:43.847Z,16.42
2018-02-25T07:28:11.325Z,21.08
2018-02-25T07:30:38.820Z,19.80
2018-02-25T07:33:06.360Z,23.73
2018-02-25T07:35:33.801Z,20.92
2018-02-25T07:38:01.296Z,20.55
2018-02-25T07:40:28.767Z,18.90
2018-02-25T07:42:56.241Z,17.58
2018-02-25T07:45:23.723Z,21.77
2018-02-25T07:47:51.202Z,20.30
2018-02-25T07:50:18.740Z,24.27
2018-02-25T07:52:46.227Z,19.48
2018-02-25T07:55:13.712Z,22.45
2018-02-25T07:57:41.199Z,20.95
2018-02-25T08:00:08.733Z,17.45
2018-02-25T08:02:36.213Z,21.62
2018-02-25T08:05:03.736Z,17.58
2018-02-25T08:07:31.229Z,26.42
2018-02-25T08:09:58.712Z,21.30
2018-02-25T08:12:26.339Z,21.08
2018-02-25T08:14:53.833Z,20.75
2018-02-25T08:17:21.358Z,19.55
2018-02-25T08:19:48.867Z,17.85
2018-02-25T08:22:16.448Z,21.58
2018-02-25T08:24:44.956Z,18.75
2018-02-25T08:27:12.451Z,20.60
2018-02-25T08:29:39.953Z,23.75
2018-02-25T08:32:07.428Z,19.12
2018-02-25T08:34:34.901Z,20.55
2018-02-25T08:37:02.376Z,16.40
2018-02-25T08:39:29.925Z,22.00
2018-02-25T08:41:57.421Z,23.45
2018-02-25T08:44:24.877Z,27.73
2018-02-25T08:46:52.379Z,26.25
2018-02-25T08:49:19.851Z,23.45
2018-02-25T08:51:47.385Z,19.58
2018-02-25T08:54:14.879Z,25.73
2018-02-25T08:56:42.344Z,24.33
2018-02-25T08:59:09.835Z,19.40
2018-02-25T09:01:37.316Z,21.25
2018-02-25T09:04:04.806Z,22.62
2018-02-25T09:06:32.303Z,25.40
2018-02-25T09:08:59.790Z,23.87
2018-02-25T09:11:27.261Z,21.20
2018-02-25T09:13:54.727Z,24.75
2018-02-25T09:16:22.210Z,19.02
2018-02-25T09:18:49.686Z,19.25
2018-02-25T09:21:17.196Z,16.45
2018-02-25T09:23:44.750Z,17.77
2018-02-25T09:26:12.278Z,25.92
2018-02-25T09:28:39.749Z,19.08
2018-02-25T09:31:07.269Z,21.27
2018-02-25T09:33:34.814Z,23.48
2018-02-25T09:36:02.329Z,20.23
2018-02-25T09:38:30.090Z,20.92
2018-02-25T09:40:57.580Z,22.62
2018-02-25T09:43:25.064Z,25.35
2018-02-25T09:45:53.108Z,21.15
2018-02-25T09:48:20.576Z,22.87
2018-02-25T09:50:48.047Z,17.10
2018-02-25T09:53:15.574Z,24.35
2018-02-25T09:55:43.044Z,23.25
2018-02-25T09:58:10.519Z,22.02
2018-02-25T10:00:38.001Z,23.85
2018-02-25T10:03:05.491Z,22.58
2018-02-25T10:05:32.988Z,30.48
2018-02-25T10:08:00.620Z,23.23
2018-02-25T10:10:28.282Z,22.58
2018-02-25T10:12:55.759Z,19.95
2018-02-25T10:15:23.243Z,25.02
2018-02-25T10:17:50.784Z,24.48
2018-02-25T10:20:18.331Z,18.73
2018-02-25T10:22:45.796Z,26.90
2018-02-25T10:25:13.284Z,24.30
2018-02-25T10:27:40.762Z,20.77
2018-02-25T10:30:08.285Z,20.83
2018-02-25T10:32:35.780Z,23.33
2018-02-25T10:35:03.283Z,18.90
2018-02-25T10:37:30.768Z,22.98
2018-02-25T10:39:58.256Z,21.48
2018-02-25T10:42:25.848Z,26.87
2018-02-25T10:44:53.320Z,22.37
2018-02-25T10:47:20.806Z,20.30
2018-02-25T10:49:48.315Z,22.00
2018-02-25T10:52:15.839Z,25.92
2018-02-25T10:54:43.401Z,23.23
2018-02-25T10:57:10.897Z,21.10
2018-02-25T10:59:38.367Z,23.67
2018-02-25T11:02:05.840Z,21.35
2018-02-25T11:04:33.306Z,22.60
2018-02-25T11:07:00.774Z,27.60
2018-02-25T11:09:28.267Z,16.65
2018-02-25T11:11:55.788Z,26.05
2018-02-25T11:14:23.266Z,22.23
2018-02-25T11:16:50.783Z,22.25
2018-02-25T11:19:18.281Z,24.00
2018-02-25T11:21:45.773Z,23.00
2018-02-25T11:24:14.358Z,19.95
2018-02-25T11:26:41.857Z,24.67
2018-02-25T11:29:09.417Z,19.60
2018-02-25T11:31:37.001Z,22.27
2018-02-25T11:34:04.464Z,27.90
2018-02-25T11:36:31.926Z,26.90
2018-02-25T11:38:59.405Z,29.33
2018-02-25T11:41:26.907Z,21.02
2018-02-25T11:43:54.433Z,21.73
2018-02-25T11:46:21.933Z,17.87
2018-02-25T11:48:49.490Z,21.08
2018-02-25T11:51:17.161Z,24.73
2018-02-25T11:53:44.659Z,20.10
2018-02-25T11:56:12.430Z,18.73
2018-02-25T11:58:40.000Z,26.10
2018-02-25T12:01:07.520Z,17.98
2018-02-25T12:03:34.988Z,24.52
2018-02-25T12:06:02.495Z,19.73
2018-02-25T12:08:29.981Z,21.65
2018-02-25T12:10:57.510Z,25.08
2018-02-25T12:13:25.003Z,23.17
2018-02-25T12:15:52.451Z,25.67
2018-02-25T12:18:19.985Z,18.65
2018-02-25T12:20:47.464Z,20.12
2018-02-25T12:23:14.990Z,22.35
2018-02-25T12:25:42.543Z,22.70
2018-02-25T12:28:10.040Z,20.27
2018-02-25T12:30:37.499Z,18.85
2018-02-25T12:33:05.004Z,14.90
2018-02-25T12:35:32.487Z,25.95
2018-02-25T12:37:59.975Z,26.20
2018-02-25T12:40:27.436Z,19.40
2018-02-25T12:42:54.894Z,23.30
2018-02-25T12:45:22.445Z,19.17
2018-02-25T12:47:49.935Z,20.80
2018-02-25T12:50:17.427Z,25.37
2018-02-25T12:52:44.928Z,25.80
2018-02-25T12:55:12.384Z,21.75
2018-02-25T12:57:39.872Z,16.62
2018-02-25T13:00:07.327Z,19.80
2018-02-25T13:02:34.867Z,20.58
2018-02-25T13:05:02.389Z,21.95
2018-02-25T13:07:29.889Z,21.30
2018-02-25T13:09:57.449Z,24.00
2018-02-25T13:12:25.465Z,18.10
2018-02-25T13:14:52.964Z,29.90
2018-02-25T13:17:20.459Z,23.15
2018-02-25T13:19:47.964Z,22.10
2018-02-25T13:22:15.648Z,20.65
2018-02-25T13:24:43.385Z,18.92
2018-02-25T13:27:10.988Z,19.65
2018-02-25T13:29:38.463Z,23.20
2018-02-25T13:32:05.954Z,20.40
2018-02-25T13:34:33.525Z,20.25
2018-02-25T13:37:01.064Z,17.90
2018-02-25T13:39:28.551Z,23.27
2018-02-25T13:41:56.094Z,20.05
2018-02-25T13:44:23.684Z,19.35
2018-02-25T13:46:51.176Z,19.52
2018-02-25T13:49:18.649Z,23.58
2018-02-25T13:51:46.492Z,18.25
2018-02-25T13:54:14.135Z,14.25
2018-02-25T13:56:41.601Z,22.13
2018-02-25T13:59:09.085Z,19.05
2018-02-25T14:01:36.595Z,17.75
2018-02-25T14:04:04.114Z,17.23
2018-02-25T14:06:31.597Z,17.67
2018-02-25T14:08:59.083Z,16.70
2018-02-25T14:11:26.546Z,15.85
2018-02-25T14:13:54.067Z,14.32
2018-02-25T14:16:21.572Z,17.10
2018-02-25T14:18:49.191Z,11.80
2018-02-25T14:21:16.683Z,14.93
2018-02-25T14:23:44.164Z,15.10
2018-02-25T14:26:11.801Z,13.57
2018-02-25T14:28:39.359Z,13.62
2018-02-25T14:31:06.823Z,14.07
2018-02-25T14:33:34.308Z,13.32
2018-02-25T14:36:01.792Z,14.60
2018-02-25T14:38:29.297Z,15.35
2018-02-25T14:40:56.793Z,12.63
2018-02-25T14:43:24.352Z,18.00
2018-02-25T14:45:51.824Z,18.23
2018-02-25T14:48:19.306Z,13.02
2018-02-25T14:50:46.799Z,17.37
2018-02-25T14:53:14.276Z,13.62
2018-02-25T14:55:41.747Z,15.88
2018-02-25T14:58:09.212Z,17.77
2018-02-25T15:00:36.736Z,13.80
2018-02-25T15:03:04.211Z,15.63
2018-02-25T15:05:31.765Z,14.02
2018-02-25T15:07:59.269Z,12.77
2018-02-25T15:10:26.737Z,14.85
2018-02-25T15:12:54.206Z,18.30
2018-02-25T15:15:21.696Z,13.52
2018-02-25T15:17:49.177Z,13.48
2018-02-25T15:20:16.750Z,12.57
2018-02-25T15:22:44.252Z,11.57
2018-02-25T15:25:11.781Z,12.50
2018-02-25T15:27:39.300Z,16.50
2018-02-25T15:30:06.788Z,12.55
2018-02-25T15:32:34.421Z,16.50
2018-02-25T15:35:02.945Z,18.12
2018-02-25T15:37:31.288Z,15.25
2018-02-25T15:39:58.766Z,12.37
2018-02-25T15:42:26.321Z,12.73
2018-02-25T15:44:53.808Z,10.48
2018-02-25T15:47:21.316Z,12.73
2018-02-25T15:49:48.787Z,12.30
2018-02-25T15:52:16.247Z,14.15
2018-02-25T15:54:44.377Z,10.80
2018-02-25T15:57:11.951Z,15.05
2018-02-25T15:59:39.419Z,11.02
2018-02-25T16:02:06.883Z,10.77
2018-02-25T16:04:34.765Z,16.75
2018-02-25T16:07:03.725Z,13.68
2018-02-25T16:09:31.199Z,16.67
2018-02-25T16:11:58.849Z,14.05
2018-02-25T16:14:26.351Z,14.55
2018-02-25T16:16:53.816Z,12.63
2018-02-25T16:19:21.332Z,18.58
2018-02-25T16:21:48.856Z,12.23
2018-02-25T16:24:16.320Z,13.20
2018-02-25T16:26:43.811Z,17.73
2018-02-25T16:29:11.316Z,19.75
2018-02-25T16:31:38.803Z,17.10
2018-02-25T16:34:06.628Z,12.52
2018-02-25T16:36:34.084Z,13.32
2018-02-25T16:39:01.604Z,10.55
2018-02-25T16:41:29.500Z,12.40
2018-02-25T16:43:56.984Z,16.48
2018-02-25T16:46:24.472Z,16.00
2018-02-25T16:48:51.964Z,14.75
2018-02-25T16:51:19.420Z,13.43
2018-02-25T16:53:46.896Z,14.05
2018-02-25T16:56:14.527Z,17.80
2018-02-25T16:58:42.061Z,11.77
2018-02-25T17:01:09.545Z,15.43
2018-02-25T17:03:37.002Z,14.73
2018-02-25T17:06:04.471Z,9.25
2018-02-25T17:08:32.117Z,17.48
2018-02-25T17:11:01.017Z,14.07
2018-02-25T17:13:28.478Z,17.98
2018-02-25T17:15:56.012Z,11.43
2018-02-25T17:18:23.722Z,12.45
2018-02-25T17:20:51.242Z,14.00
2018-02-25T17:23:24.526Z,18.87
2018-02-25T17:25:52.024Z,13.88
2018-02-25T17:28:19.491Z,17.00
2018-02-25T17:30:46.971Z,12.95
2018-02-25T17:33:14.697Z,18.20
2018-02-25T17:35:42.176Z,15.80
2018-02-25T17:38:09.666Z,17.70
2018-02-25T17:40:38.081Z,17.67
2018-02-25T17:43:05.613Z,23.77
2018-02-25T17:45:33.106Z,16.10
2018-02-25T17:48:00.592Z,20.58
2018-02-25T17:50:28.111Z,21.62
2018-02-25T17:52:55.632Z,15.90
2018-02-25T17:55:24.520Z,19.15
2018-02-25T17:57:50.697Z,15.02
2018-02-25T18:00:18.279Z,21.70
2018-02-25T18:02:45.819Z,25.58
2018-02-25T18:05:13.295Z,19.90
2018-02-25T18:07:40.801Z,20.05
2018-02-25T18:10:09.793Z,21.30
2018-02-25T18:12:37.272Z,26.17
2018-02-25T18:15:04.863Z,22.52
2018-02-25T18:17:32.342Z,21.50
2018-02-25T18:19:59.836Z,20.58
2018-02-25T18:22:27.347Z,20.70
2018-02-25T18:24:54.991Z,23.48
2018-02-25T18:29:54.750Z,35.35
2018-02-25T18:32:22.296Z,20.52
2018-02-25T18:34:49.801Z,21.17
2018-02-25T18:37:17.354Z,24.48
2018-02-25T18:39:45.068Z,21.65
2018-02-25T18:42:12.584Z,26.00
2018-02-25T18:44:40.067Z,25.08
2018-02-25T18:47:07.638Z,26.00
2018-02-25T18:49:35.140Z,23.25
2018-02-25T18:52:02.636Z,24.40
2018-02-25T18:54:30.569Z,26.05
2018-02-25T18:56:58.222Z,24.75
2018-02-25T18:59:26.078Z,23.40
2018-02-25T19:01:54.036Z,30.75
2018-02-25T19:04:22.952Z,27.13
2018-02-25T19:06:50.432Z,25.33
2018-02-25T19:09:17.970Z,26.75
2018-02-25T19:11:45.467Z,27.48
2018-02-25T19:14:13.139Z,37.10
2018-02-25T19:16:40.790Z,27.67
2018-02-25T19:19:12.293Z,32.83
2018-02-25T19:21:40.347Z,25.12
2018-02-25T19:24:07.868Z,32.95
2018-02-25T19:26:35.858Z,26.67
2018-02-25T19:29:03.375Z,26.02
2018-02-25T19:31:30.881Z,29.02
2018-02-25T19:33:58.400Z,25.70
2018-02-25T19:36:31.722Z,27.77
2018-02-25T19:39:04.648Z,27.40
2018-02-25T19:41:37.888Z,24.73
2018-02-25T19:44:05.420Z,27.23
2018-02-25T19:46:33.259Z,25.48
2018-02-25T19:49:00.767Z,29.90
2018-02-25T19:51:28.306Z,25.50
2018-02-25T19:53:55.831Z,33.35
2018-02-25T19:56:23.345Z,25.73
2018-02-25T19:58:50.845Z,30.33
2018-02-25T20:01:19.191Z,29.98
2018-02-25T20:03:46.728Z,31.42
2018-02-25T20:06:14.465Z,31.15
2018-02-25T20:08:41.938Z,30.33
2018-02-25T20:11:09.434Z,35.30
2018-02-25T20:13:36.997Z,33.72
2018-02-25T20:16:04.491Z,29.65
2018-02-25T20:18:32.010Z,30.50
2018-02-25T20:20:59.530Z,33.85
2018-02-25T20:23:27.020Z,32.17
2018-02-25T20:25:54.519Z,32.08
2018-02-25T20:28:22.238Z,30.25
2018-02-25T20:30:49.728Z,29.77
2018-02-25T20:33:17.288Z,25.02
2018-02-25T20:35:44.765Z,22.92
2018-02-25T20:38:12.284Z,36.72
2018-02-25T20:40:39.763Z,28.48
2018-02-25T20:43:07.269Z,27.48
2018-02-25T20:45:36.934Z,26.12
2018-02-25T20:48:04.429Z,26.90
2018-02-25T20:50:32.318Z,31.37
2018-02-25T20:52:59.834Z,34.53
2018-02-25T20:55:27.426Z,29.08
2018-02-25T20:57:54.982Z,29.12
2018-02-25T21:00:23.208Z,31.45
2018-02-25T21:02:50.716Z,24.40
2018-02-25T21:05:18.204Z,25.17
2018-02-25T21:07:45.676Z,34.75
2018-02-25T21:10:13.265Z,36.47
2018-02-25T21:12:40.813Z,24.98
2018-02-25T21:15:08.930Z,37.75
2018-02-25T21:17:36.442Z,31.33
2018-02-25T21:22:36.494Z,35.03
2018-02-25T21:25:04.020Z,31.45
2018-02-25T21:27:31.508Z,29.63
2018-02-25T21:29:59.580Z,37.70
2018-02-25T21:32:27.062Z,33.60
2018-02-25T21:34:55.512Z,39.53
2018-02-25T21:37:23.003Z,24.02
2018-02-25T21:39:50.495Z,34.42
2018-02-25T21:42:17.970Z,34.13
2018-02-25T21:44:45.443Z,28.08
2018-02-25T21:47:12.901Z,31.85
2018-02-25T21:49:40.427Z,27.35
2018-02-25T21:52:07.916Z,26.62
2018-02-25T21:54:40.928Z,31.27
2018-02-25T21:57:15.683Z,31.02
2018-02-25T21:59:48.707Z,29.60
2018-02-25T22:02:21.801Z,40.92
2018-02-25T22:04:49.279Z,33.70
2018-02-25T22:07:16.769Z,30.52
2018-02-25T22:09:44.264Z,30.42
2018-02-25T22:12:12.820Z,31.25
2018-02-25T22:14:40.315Z,39.13
2018-02-25T22:17:07.812Z,28.27
2018-02-25T22:19:35.383Z,27.58
2018-02-25T22:24:36.576Z,28.05
2018-02-25T22:27:04.135Z,31.77
2018-02-25T22:29:31.616Z,34.90
2018-02-25T22:31:59.155Z,33.35
2018-02-25T22:34:28.024Z,30.98
2018-02-25T22:36:55.510Z,23.65
2018-02-25T22:39:22.998Z,33.17
2018-02-25T22:41:50.501Z,28.95
2018-02-25T22:44:18.847Z,29.33
2018-02-25T22:46:46.387Z,29.27
2018-02-25T22:49:13.894Z,29.30
2018-02-25T22:51:41.482Z,27.70
2018-02-25T22:54:09.033Z,27.52
2018-02-25T22:56:36.508Z,26.73
2018-02-25T22:59:03.996Z,34.65
2018-02-25T23:01:31.482Z,28.75
2018-02-25T23:03:58.945Z,29.60
2018-02-25T23:06:27.116Z,33.28
2018-02-25T23:08:54.718Z,25.02
2018-02-25T23:11:22.279Z,36.97
2018-02-25T23:13:49.842Z,28.00
2018-02-25T23:16:17.300Z,33.95
2018-02-25T23:18:44.930Z,25.52
2018-02-25T23:21:12.414Z,45.17
2018-02-25T23:23:39.904Z,27.13
2018-02-25T23:26:07.466Z,29.45
2018-02-25T23:28:35.057Z,32.70
2018-02-25T23:31:02.516Z,27.52
2018-02-25T23:33:30.002Z,33.05
2018-02-25T23:35:57.477Z,28.50
2018-02-25T23:38:24.984Z,29.50
2018-02-25T23:40:52.491Z,31.85
2018-02-25T23:43:19.983Z,32.47
2018-02-25T23:45:47.537Z,27.65
2018-02-25T23:48:15.042Z,27.23
2018-02-25T23:50:42.536Z,32.20
2018-02-25T23:53:10.009Z,31.55
2018-02-25T23:55:37.523Z,33.13
2018-02-25T23:58:05.014Z,26.25
